Time;durP1;ratioP1;P1;durP2;ratioP2;P2;SDS_P1;SDS_P2;PMS_P1;PMS_P2;Temp;Humidity;BMP_temperature;BMP_pressure;BME280_temperature;BME280_humidity;BME280_pressure;Samples;Min_cycle;Max_cycle;Signal;HPM_P1;HPM_P2
2024/04/08 00:02:27;;;;;;;9.05;2.88;;;;;;;;;;4925725;29;20036;-80
2024/04/08 00:05:12;;;;;;;18.00;3.10;;;;;;;;;;4927615;29;20030;-80
2024/04/08 00:07:57;;;;;;;8.20;3.55;;;;;;;;;;4940950;29;20445;-80
2024/04/08 00:10:42;;;;;;;11.63;3.00;;;;;;;;;;4927096;29;20032;-80
2024/04/08 00:13:28;;;;;;;16.98;3.78;;;;;;;;;;4918876;29;20214;-80
2024/04/08 00:16:13;;;;;;;10.98;3.38;;;;;;;;;;4912528;29;20568;-80
2024/04/08 00:18:58;;;;;;;13.50;2.60;;;;;;;;;;4921840;29;20430;-80
2024/04/08 00:21:43;;;;;;;11.38;3.03;;;;;;;;;;4911799;29;20032;-80
2024/04/08 00:24:28;;;;;;;12.68;3.58;;;;;;;;;;4916709;29;20058;-79
2024/04/08 00:27:14;;;;;;;12.10;3.05;;;;;;;;;;4938897;29;20038;-80
2024/04/08 00:29:59;;;;;;;10.73;2.80;;;;;;;;;;4919098;29;20048;-79
2024/04/08 00:32:44;;;;;;;13.55;3.22;;;;;;;;;;4918763;29;20064;-79
2024/04/08 00:35:29;;;;;;;8.88;2.53;;;;;;;;;;4908004;29;20020;-80
2024/04/08 00:38:14;;;;;;;15.65;3.33;;;;;;;;;;4925706;29;20031;-79
2024/04/08 00:41:03;;;;;;;6.55;2.30;;;;;;;;;;4926978;29;20024;-79
2024/04/08 00:43:48;;;;;;;11.18;3.30;;;;;;;;;;4926443;29;20108;-79
2024/04/08 00:46:33;;;;;;;14.95;3.75;;;;;;;;;;4922648;29;20046;-79
2024/04/08 00:49:19;;;;;;;13.40;2.90;;;;;;;;;;4915432;29;20044;-79
2024/04/08 00:52:04;;;;;;;10.93;3.35;;;;;;;;;;4908369;29;20024;-79
2024/04/08 00:54:50;;;;;;;9.02;2.88;;;;;;;;;;4932695;29;20019;-79
2024/04/08 00:57:35;;;;;;;15.65;3.13;;;;;;;;;;4918478;29;20035;-79
2024/04/08 01:00:20;;;;;;;16.52;3.00;;;;;;;;;;4915902;29;20024;-78
2024/04/08 01:03:05;;;;;;;11.63;3.50;;;;;;;;;;4911966;29;20032;-79
2024/04/08 01:05:51;;;;;;;11.20;2.72;;;;;;;;;;4927336;29;20032;-78
2024/04/08 01:08:36;;;;;;;12.35;3.17;;;;;;;;;;4923496;29;20032;-79
2024/04/08 01:11:22;;;;;;;15.35;3.05;;;;;;;;;;4934614;29;20036;-78
2024/04/08 01:14:08;;;;;;;11.80;2.60;;;;;;;;;;4912462;29;20487;-79
2024/04/08 01:16:53;;;;;;;12.98;2.78;;;;;;;;;;4939622;29;20190;-79
2024/04/08 01:19:39;;;;;;;14.60;3.38;;;;;;;;;;4926710;29;20386;-79
2024/04/08 01:22:24;;;;;;;13.57;2.72;;;;;;;;;;4926509;29;20054;-79
2024/04/08 01:25:09;;;;;;;7.25;2.72;;;;;;;;;;4907673;29;20024;-80
2024/04/08 01:27:55;;;;;;;14.15;3.15;;;;;;;;;;4908187;29;20035;-79
2024/04/08 01:30:42;;;;;;;11.05;3.05;;;;;;;;;;4907669;29;20027;-79
2024/04/08 01:33:27;;;;;;;10.13;3.03;;;;;;;;;;4908084;29;20035;-79
2024/04/08 01:36:13;;;;;;;17.73;3.25;;;;;;;;;;4919858;29;20112;-79
2024/04/08 01:38:59;;;;;;;10.48;3.22;;;;;;;;;;4907408;29;20028;-79
2024/04/08 01:41:44;;;;;;;10.75;2.85;;;;;;;;;;4907243;29;20398;-79
2024/04/08 01:44:29;;;;;;;9.13;2.20;;;;;;;;;;4915425;29;20480;-80
2024/04/08 01:47:14;;;;;;;11.85;2.97;;;;;;;;;;4926875;29;20055;-80
2024/04/08 01:50:00;;;;;;;12.80;3.45;;;;;;;;;;4939238;29;20842;-79
2024/04/08 01:52:45;;;;;;;12.85;3.08;;;;;;;;;;4925952;29;20101;-79
2024/04/08 01:55:30;;;;;;;9.35;2.88;;;;;;;;;;4927075;29;20028;-79
2024/04/08 01:58:15;;;;;;;17.17;3.33;;;;;;;;;;4925838;29;20493;-79
2024/04/08 02:01:00;;;;;;;9.25;2.78;;;;;;;;;;4914116;29;20028;-79
2024/04/08 02:03:46;;;;;;;13.82;3.30;;;;;;;;;;4923792;29;20032;-79
2024/04/08 02:06:31;;;;;;;8.30;2.72;;;;;;;;;;4912551;29;20510;-80
2024/04/08 02:09:16;;;;;;;10.27;3.08;;;;;;;;;;4913666;29;20124;-79
2024/04/08 02:12:02;;;;;;;10.15;3.15;;;;;;;;;;4926125;29;20055;-79
2024/04/08 02:14:47;;;;;;;9.05;2.97;;;;;;;;;;4933853;29;20485;-79
2024/04/08 02:17:32;;;;;;;11.07;3.38;;;;;;;;;;4978737;28;20531;-78
2024/04/08 02:20:17;;;;;;;11.02;2.75;;;;;;;;;;4941101;29;20027;-79
2024/04/08 02:23:03;;;;;;;16.15;3.28;;;;;;;;;;4951697;28;20024;-78
2024/04/08 02:25:49;;;;;;;15.40;3.42;;;;;;;;;;4910016;29;20028;-79
2024/04/08 02:28:34;;;;;;;11.23;3.60;;;;;;;;;;4910054;29;20039;-78
2024/04/08 02:31:19;;;;;;;10.90;2.97;;;;;;;;;;4919458;29;20019;-79
2024/04/08 02:34:05;;;;;;;8.38;2.70;;;;;;;;;;4929104;29;20078;-79
2024/04/08 02:36:50;;;;;;;13.38;3.15;;;;;;;;;;4936752;29;20035;-79
2024/04/08 02:39:35;;;;;;;14.05;3.33;;;;;;;;;;4928513;28;20098;-79
2024/04/08 02:42:20;;;;;;;9.43;3.58;;;;;;;;;;4911990;29;20032;-79
2024/04/08 02:45:06;;;;;;;9.77;3.03;;;;;;;;;;4926549;28;20027;-80
2024/04/08 02:47:51;;;;;;;10.77;3.08;;;;;;;;;;4928196;29;20027;-79
2024/04/08 02:50:36;;;;;;;8.07;3.00;;;;;;;;;;4941699;28;20034;-80
2024/04/08 02:53:21;;;;;;;11.70;3.28;;;;;;;;;;4909490;29;20032;-79
2024/04/08 02:56:07;;;;;;;10.52;3.22;;;;;;;;;;4922624;29;20099;-80
2024/04/08 02:58:52;;;;;;;10.98;2.90;;;;;;;;;;4909655;29;20048;-80
2024/04/08 03:01:38;;;;;;;11.65;2.53;;;;;;;;;;4910492;29;20036;-80
2024/04/08 03:04:23;;;;;;;9.85;3.20;;;;;;;;;;4914644;29;20036;-80
2024/04/08 03:07:08;;;;;;;9.88;3.17;;;;;;;;;;4907112;29;20048;-80
2024/04/08 03:09:54;;;;;;;9.30;2.40;;;;;;;;;;4919577;29;20039;-80
2024/04/08 03:12:39;;;;;;;11.25;3.15;;;;;;;;;;4906521;29;20031;-80
2024/04/08 03:15:24;;;;;;;9.30;2.92;;;;;;;;;;4929421;29;20033;-80
2024/04/08 03:18:10;;;;;;;9.40;2.60;;;;;;;;;;4932832;29;20031;-79
2024/04/08 03:20:55;;;;;;;13.20;4.30;;;;;;;;;;4913957;29;20036;-79
2024/04/08 03:23:40;;;;;;;15.18;3.33;;;;;;;;;;4925815;29;20032;-79
2024/04/08 03:26:25;;;;;;;8.20;3.00;;;;;;;;;;4925385;28;20036;-79
2024/04/08 03:29:10;;;;;;;12.48;2.67;;;;;;;;;;4906373;29;20040;-80
2024/04/08 03:31:55;;;;;;;12.77;3.20;;;;;;;;;;4908593;29;20028;-80
2024/04/08 03:34:41;;;;;;;9.65;3.72;;;;;;;;;;4922832;29;20078;-79
2024/04/08 03:37:26;;;;;;;8.55;2.70;;;;;;;;;;4910820;29;20036;-80
2024/04/08 03:40:12;;;;;;;21.60;2.92;;;;;;;;;;4923548;29;20032;-79
2024/04/08 03:42:58;;;;;;;16.25;3.38;;;;;;;;;;4925115;29;20471;-79
2024/04/08 03:45:48;;;;;;;12.95;2.90;;;;;;;;;;4938119;28;20032;-80
2024/04/08 03:48:33;;;;;;;10.75;3.13;;;;;;;;;;4938049;29;20036;-80
2024/04/08 03:51:19;;;;;;;11.13;3.05;;;;;;;;;;4928523;29;20031;-80
2024/04/08 03:54:04;;;;;;;10.65;3.38;;;;;;;;;;4909949;29;20207;-79
2024/04/08 03:56:49;;;;;;;13.85;2.58;;;;;;;;;;4908565;29;20032;-79
2024/04/08 03:59:34;;;;;;;9.90;3.70;;;;;;;;;;4909314;28;20044;-80
2024/04/08 04:02:20;;;;;;;12.57;3.28;;;;;;;;;;4917846;28;20173;-79
2024/04/08 04:05:05;;;;;;;15.23;2.85;;;;;;;;;;4923461;29;20087;-79
2024/04/08 04:07:52;;;;;;;12.25;4.18;;;;;;;;;;4923331;29;20689;-79
2024/04/08 04:10:37;;;;;;;9.88;3.08;;;;;;;;;;4925898;29;20035;-79
2024/04/08 04:13:22;;;;;;;14.30;3.15;;;;;;;;;;4917791;29;20036;-80
2024/04/08 04:16:07;;;;;;;14.40;2.92;;;;;;;;;;4919947;29;20119;-80
2024/04/08 04:18:52;;;;;;;11.23;3.13;;;;;;;;;;4917210;29;20036;-79
2024/04/08 04:21:38;;;;;;;8.23;3.35;;;;;;;;;;4913414;28;20074;-79
2024/04/08 04:24:23;;;;;;;11.43;3.70;;;;;;;;;;4918149;29;20118;-79
2024/04/08 04:27:08;;;;;;;14.60;3.25;;;;;;;;;;4904818;29;20028;-79
2024/04/08 04:29:53;;;;;;;12.88;4.10;;;;;;;;;;4923789;29;20024;-80
2024/04/08 04:32:40;;;;;;;9.77;2.67;;;;;;;;;;4925333;28;20027;-79
2024/04/08 04:35:25;;;;;;;10.48;3.67;;;;;;;;;;4919762;29;20023;-78
2024/04/08 04:38:10;;;;;;;11.90;3.45;;;;;;;;;;4921614;29;20031;-79
2024/04/08 04:41:02;;;;;;;10.43;3.10;;;;;;;;;;4920379;29;20023;-77
2024/04/08 04:43:47;;;;;;;13.15;3.45;;;;;;;;;;4923941;29;20023;-77
2024/04/08 04:46:32;;;;;;;11.15;3.53;;;;;;;;;;4933249;28;20024;-78
2024/04/08 04:49:18;;;;;;;14.85;3.80;;;;;;;;;;4912268;29;20042;-79
2024/04/08 04:52:03;;;;;;;13.40;4.28;;;;;;;;;;4911308;29;20024;-79
2024/04/08 04:54:48;;;;;;;18.67;3.80;;;;;;;;;;4910143;28;20028;-78
2024/04/08 04:57:34;;;;;;;12.15;2.80;;;;;;;;;;4917812;29;20035;-77
2024/04/08 05:00:19;;;;;;;15.32;3.47;;;;;;;;;;4909393;29;20055;-78
2024/04/08 05:03:04;;;;;;;11.75;4.60;;;;;;;;;;4917057;29;20098;-78
2024/04/08 05:05:56;;;;;;;15.43;4.10;;;;;;;;;;4926927;29;20079;-78
2024/04/08 05:08:41;;;;;;;10.75;3.50;;;;;;;;;;4908807;29;20020;-78
2024/04/08 05:11:27;;;;;;;10.52;3.42;;;;;;;;;;4915130;29;20020;-75
2024/04/08 05:14:12;;;;;;;8.48;3.13;;;;;;;;;;4908752;29;20554;-77
2024/04/08 05:16:57;;;;;;;14.73;3.80;;;;;;;;;;4917173;29;20063;-76
2024/04/08 05:19:42;;;;;;;8.25;2.80;;;;;;;;;;4933253;29;20040;-78
2024/04/08 05:22:28;;;;;;;14.40;3.30;;;;;;;;;;4916983;29;20229;-78
2024/04/08 05:25:14;;;;;;;12.95;3.25;;;;;;;;;;4926256;29;20578;-78
2024/04/08 05:27:59;;;;;;;12.23;3.78;;;;;;;;;;4925784;29;20034;-78
2024/04/08 05:30:44;;;;;;;8.05;2.78;;;;;;;;;;4926064;29;20059;-78
2024/04/08 05:33:30;;;;;;;16.23;4.18;;;;;;;;;;4925725;29;20129;-78
2024/04/08 05:36:15;;;;;;;13.10;3.90;;;;;;;;;;4924923;29;20035;-79
2024/04/08 05:39:00;;;;;;;20.30;4.55;;;;;;;;;;4917229;29;20468;-80
2024/04/08 05:41:45;;;;;;;12.80;4.28;;;;;;;;;;4917594;28;20352;-77
2024/04/08 05:44:31;;;;;;;10.60;4.45;;;;;;;;;;4916793;29;20114;-77
2024/04/08 05:47:16;;;;;;;9.40;3.78;;;;;;;;;;4981212;28;20105;-77
2024/04/08 05:50:01;;;;;;;16.50;3.97;;;;;;;;;;4929196;28;20438;-77
2024/04/08 05:52:46;;;;;;;9.88;3.67;;;;;;;;;;4920651;28;20024;-77
2024/04/08 05:55:33;;;;;;;12.57;3.47;;;;;;;;;;4915617;28;20038;-77
2024/04/08 05:58:18;;;;;;;13.05;3.50;;;;;;;;;;4985121;28;20067;-78
2024/04/08 06:01:02;;;;;;;13.75;3.88;;;;;;;;;;4912614;28;20066;-78
2024/04/08 06:04:07;;;;;;;15.23;3.45;;;;;;;;;;4912896;28;20054;-76
2024/04/08 06:07:08;;;;;;;11.07;3.55;;;;;;;;;;4921204;29;20024;-77
2024/04/08 06:09:54;;;;;;;15.65;3.38;;;;;;;;;;4992666;28;20604;-78
2024/04/08 06:12:39;;;;;;;11.63;3.60;;;;;;;;;;4921431;29;20054;-78
2024/04/08 06:15:25;;;;;;;12.05;3.53;;;;;;;;;;4924683;29;20077;-79
2024/04/08 06:18:10;;;;;;;20.02;4.15;;;;;;;;;;4924857;29;20082;-79
2024/04/08 06:20:58;;;;;;;11.25;3.63;;;;;;;;;;4924682;29;20474;-78
2024/04/08 06:23:43;;;;;;;15.57;4.13;;;;;;;;;;4925009;29;20035;-76
2024/04/08 06:26:29;;;;;;;14.00;3.45;;;;;;;;;;4924742;29;20110;-77
2024/04/08 06:29:14;;;;;;;13.60;3.85;;;;;;;;;;4924936;29;20082;-77
2024/04/08 06:31:59;;;;;;;9.63;3.58;;;;;;;;;;4925712;29;20456;-77
2024/04/08 06:34:45;;;;;;;14.02;4.00;;;;;;;;;;4925162;29;20082;-77
2024/04/08 06:37:30;;;;;;;16.58;4.45;;;;;;;;;;4912084;29;20081;-77
2024/04/08 06:40:15;;;;;;;20.35;4.55;;;;;;;;;;4924659;28;20040;-77
2024/04/08 06:43:00;;;;;;;16.48;4.00;;;;;;;;;;4925280;29;20027;-77
2024/04/08 06:45:53;;;;;;;13.43;4.38;;;;;;;;;;4893930;29;20036;-77
2024/04/08 06:48:39;;;;;;;12.10;4.45;;;;;;;;;;4906520;29;20036;-77
2024/04/08 06:51:24;;;;;;;11.25;3.53;;;;;;;;;;4911196;29;20015;-76
2024/04/08 06:54:10;;;;;;;16.10;3.63;;;;;;;;;;4937682;28;20038;-76
2024/04/08 06:56:55;;;;;;;11.63;3.50;;;;;;;;;;4924713;29;20114;-76
2024/04/08 06:59:40;;;;;;;14.57;4.20;;;;;;;;;;4924287;29;20034;-76
2024/04/08 07:02:25;;;;;;;16.77;4.45;;;;;;;;;;4924373;29;20031;-76
2024/04/08 07:05:11;;;;;;;18.00;3.92;;;;;;;;;;4924178;29;20073;-77
2024/04/08 07:07:56;;;;;;;19.60;3.83;;;;;;;;;;4925117;29;20024;-76
2024/04/08 07:10:44;;;;;;;15.43;4.80;;;;;;;;;;4937606;28;20581;-77
2024/04/08 07:13:29;;;;;;;17.52;5.53;;;;;;;;;;4924158;29;20028;-78
2024/04/08 07:16:16;;;;;;;13.07;3.42;;;;;;;;;;4924003;29;20059;-78
2024/04/08 07:19:01;;;;;;;12.80;3.67;;;;;;;;;;4923684;29;20341;-77
2024/04/08 07:21:46;;;;;;;11.63;3.47;;;;;;;;;;4924220;29;20249;-77
2024/04/08 07:24:31;;;;;;;16.08;4.10;;;;;;;;;;4925024;29;20042;-77
2024/04/08 07:27:16;;;;;;;13.10;3.20;;;;;;;;;;4927507;29;20067;-78
2024/04/08 07:30:05;;;;;;;9.85;2.72;;;;;;;;;;4926997;29;20026;-78
2024/04/08 07:32:50;;;;;;;14.32;3.90;;;;;;;;;;4927215;29;20486;-77
2024/04/08 07:35:36;;;;;;;11.68;3.10;;;;;;;;;;4940805;28;20046;-77
2024/04/08 07:38:22;;;;;;;11.65;3.03;;;;;;;;;;4927001;29;20042;-77
2024/04/08 07:41:07;;;;;;;11.85;3.15;;;;;;;;;;4927116;29;20046;-77
2024/04/08 07:43:52;;;;;;;11.23;3.13;;;;;;;;;;4927074;29;20399;-77
2024/04/08 07:46:37;;;;;;;12.55;3.45;;;;;;;;;;4927020;29;20679;-77
2024/04/08 07:49:22;;;;;;;11.02;3.80;;;;;;;;;;4927061;29;20030;-77
2024/04/08 07:52:08;;;;;;;13.60;3.17;;;;;;;;;;4926914;29;20016;-77
2024/04/08 07:54:53;;;;;;;14.13;3.60;;;;;;;;;;4928069;29;20339;-77
2024/04/08 07:57:38;;;;;;;9.68;3.85;;;;;;;;;;4926977;29;20275;-77
2024/04/08 08:00:24;;;;;;;13.10;2.85;;;;;;;;;;4940557;29;20034;-77
2024/04/08 08:03:09;;;;;;;11.20;3.28;;;;;;;;;;4927022;29;20030;-77
2024/04/08 08:05:55;;;;;;;9.60;3.70;;;;;;;;;;4940174;29;20043;-77
2024/04/08 08:08:40;;;;;;;9.15;2.80;;;;;;;;;;4926451;29;20047;-77
2024/04/08 08:11:25;;;;;;;8.63;2.55;;;;;;;;;;4940224;29;20432;-77
2024/04/08 08:14:10;;;;;;;10.50;3.63;;;;;;;;;;4926890;29;20077;-77
2024/04/08 08:16:56;;;;;;;7.50;2.88;;;;;;;;;;4926696;29;20056;-76
2024/04/08 08:19:41;;;;;;;15.00;3.17;;;;;;;;;;4926036;29;20027;-77
2024/04/08 08:22:27;;;;;;;12.95;3.50;;;;;;;;;;4939810;29;20093;-77
2024/04/08 08:25:12;;;;;;;10.38;2.67;;;;;;;;;;4926633;29;20032;-76
2024/04/08 08:27:57;;;;;;;10.95;3.45;;;;;;;;;;4926769;29;20326;-78
2024/04/08 08:30:42;;;;;;;8.10;2.80;;;;;;;;;;4926461;29;20055;-78
2024/04/08 08:33:28;;;;;;;14.55;3.45;;;;;;;;;;4926029;29;20059;-79
2024/04/08 08:36:13;;;;;;;13.73;3.08;;;;;;;;;;4925282;29;20058;-78
2024/04/08 08:38:59;;;;;;;10.27;2.75;;;;;;;;;;4926521;29;20039;-77
2024/04/08 08:41:47;;;;;;;15.57;4.38;;;;;;;;;;4996086;28;20469;-78
2024/04/08 08:44:33;;;;;;;16.80;3.75;;;;;;;;;;4939478;29;20046;-78
2024/04/08 08:47:20;;;;;;;14.45;4.35;;;;;;;;;;4927068;29;20034;-77
2024/04/08 08:50:05;;;;;;;12.20;3.00;;;;;;;;;;4926047;29;20490;-77
2024/04/08 08:52:51;;;;;;;11.10;2.55;;;;;;;;;;4927406;29;20524;-77
2024/04/08 08:55:36;;;;;;;11.73;3.10;;;;;;;;;;4926189;29;20059;-78
2024/04/08 08:58:22;;;;;;;11.20;3.03;;;;;;;;;;4926955;29;20521;-77
2024/04/08 09:01:08;;;;;;;12.90;2.88;;;;;;;;;;4939243;29;20055;-77
2024/04/08 09:03:54;;;;;;;13.18;2.58;;;;;;;;;;4939262;28;20035;-77
2024/04/08 09:06:51;;;;;;;13.35;3.22;;;;;;;;;;4995072;28;20027;-77
2024/04/08 09:09:36;;;;;;;10.20;2.92;;;;;;;;;;4925791;29;20020;-77
2024/04/08 09:12:21;;;;;;;16.83;2.63;;;;;;;;;;4925673;29;20031;-77
2024/04/08 09:15:08;;;;;;;16.10;2.72;;;;;;;;;;4926292;29;20035;-77
2024/04/08 09:18:02;;;;;;;14.13;2.85;;;;;;;;;;4939412;29;20495;-77
2024/04/08 09:20:47;;;;;;;14.02;3.08;;;;;;;;;;4939260;28;20418;-77
2024/04/08 09:23:35;;;;;;;13.15;3.05;;;;;;;;;;4926100;29;20078;-77
2024/04/08 09:26:21;;;;;;;17.30;2.40;;;;;;;;;;4926441;29;20036;-76
2024/04/08 09:29:06;;;;;;;11.75;3.03;;;;;;;;;;4925582;29;20054;-76
2024/04/08 09:31:51;;;;;;;12.90;3.10;;;;;;;;;;4925339;29;20019;-76
2024/04/08 09:34:36;;;;;;;10.23;2.15;;;;;;;;;;4925672;29;20114;-76
2024/04/08 09:37:22;;;;;;;11.65;3.33;;;;;;;;;;4925220;29;20028;-77
2024/04/08 09:40:08;;;;;;;10.57;3.78;;;;;;;;;;4925748;29;20043;-77
2024/04/08 09:42:54;;;;;;;11.77;2.67;;;;;;;;;;4925553;29;20030;-78
2024/04/08 09:45:39;;;;;;;9.05;3.10;;;;;;;;;;4925479;29;20059;-78
2024/04/08 09:48:25;;;;;;;8.82;2.42;;;;;;;;;;4924937;29;20090;-77
2024/04/08 09:51:11;;;;;;;11.57;3.53;;;;;;;;;;4938747;29;20035;-78
2024/04/08 09:53:56;;;;;;;14.57;3.42;;;;;;;;;;4925509;28;20441;-78
2024/04/08 09:56:42;;;;;;;13.80;3.08;;;;;;;;;;4924875;29;20164;-78
2024/04/08 09:59:27;;;;;;;10.07;3.00;;;;;;;;;;4925126;29;20042;-78
2024/04/08 10:02:14;;;;;;;13.07;2.97;;;;;;;;;;4925852;29;20390;-78
2024/04/08 10:05:02;;;;;;;10.18;3.03;;;;;;;;;;4925817;29;20513;-77
2024/04/08 10:07:48;;;;;;;10.88;2.67;;;;;;;;;;4925789;29;20491;-78
2024/04/08 10:10:34;;;;;;;10.02;2.92;;;;;;;;;;4924894;29;20032;-78
2024/04/08 10:13:19;;;;;;;11.18;2.92;;;;;;;;;;4925116;29;20349;-77
2024/04/08 10:16:11;;;;;;;13.52;2.88;;;;;;;;;;4919009;29;20077;-77
2024/04/08 10:18:56;;;;;;;13.70;3.28;;;;;;;;;;4905991;29;20378;-78
2024/04/08 10:21:42;;;;;;;10.35;3.25;;;;;;;;;;4906050;29;20474;-78
2024/04/08 10:24:31;;;;;;;13.63;2.90;;;;;;;;;;4919507;29;20561;-77
2024/04/08 10:27:16;;;;;;;16.67;2.97;;;;;;;;;;4919106;29;20082;-77
2024/04/08 10:30:03;;;;;;;12.27;2.97;;;;;;;;;;4905538;29;20048;-77
2024/04/08 10:32:48;;;;;;;9.60;2.15;;;;;;;;;;4905744;29;20024;-77
2024/04/08 10:35:33;;;;;;;11.90;2.80;;;;;;;;;;4906018;29;20032;-77
2024/04/08 10:38:19;;;;;;;11.90;2.55;;;;;;;;;;4905447;29;20020;-77
2024/04/08 10:41:05;;;;;;;13.82;2.58;;;;;;;;;;4905412;29;20024;-77
2024/04/08 10:43:51;;;;;;;11.98;2.38;;;;;;;;;;4908171;29;20032;-77
2024/04/08 10:46:36;;;;;;;8.60;2.22;;;;;;;;;;4924537;29;20032;-77
2024/04/08 10:49:21;;;;;;;12.80;2.72;;;;;;;;;;4924329;29;20052;-77
2024/04/08 10:52:09;;;;;;;12.88;2.47;;;;;;;;;;4924653;29;20031;-76
2024/04/08 10:54:54;;;;;;;14.55;3.25;;;;;;;;;;4924761;29;20386;-76
2024/04/08 10:57:40;;;;;;;10.77;1.90;;;;;;;;;;4924458;29;20441;-77
2024/04/08 11:00:26;;;;;;;9.80;2.22;;;;;;;;;;4926649;29;20031;-74
2024/04/08 11:03:11;;;;;;;9.63;2.65;;;;;;;;;;4941061;29;20435;-76
2024/04/08 11:05:57;;;;;;;14.43;2.55;;;;;;;;;;4927497;29;20122;-77
2024/04/08 11:08:42;;;;;;;9.88;2.45;;;;;;;;;;4927627;29;20114;-77
2024/04/08 11:11:27;;;;;;;12.57;3.00;;;;;;;;;;4928007;29;20028;-77
2024/04/08 11:14:12;;;;;;;13.02;2.45;;;;;;;;;;4927336;29;20467;-77
2024/04/08 11:17:05;;;;;;;11.50;2.78;;;;;;;;;;4940477;29;20070;-76
2024/04/08 11:21:13;;;;;;;10.40;2.45;;;;;;;;;;5534154;25;20080;-77
2024/04/08 11:23:58;;;;;;;12.85;3.08;;;;;;;;;;5506806;25;19997;-77
2024/04/08 11:26:43;;;;;;;10.75;2.22;;;;;;;;;;5507296;25;20012;-77
2024/04/08 11:29:30;;;;;;;13.45;2.97;;;;;;;;;;5506875;25;20019;-77
2024/04/08 11:32:16;;;;;;;13.65;3.15;;;;;;;;;;5506824;25;20458;-77
2024/04/08 11:35:03;;;;;;;10.15;2.78;;;;;;;;;;5506335;25;19989;-76
2024/04/08 11:37:48;;;;;;;12.82;2.92;;;;;;;;;;5506743;25;20029;-76
2024/04/08 11:40:34;;;;;;;17.20;3.35;;;;;;;;;;5507233;25;20034;-76
2024/04/08 11:43:19;;;;;;;11.02;3.03;;;;;;;;;;5507095;25;19997;-77
2024/04/08 11:46:04;;;;;;;13.35;3.10;;;;;;;;;;5469554;25;20468;-77
2024/04/08 11:48:50;;;;;;;13.85;2.55;;;;;;;;;;5470433;26;19998;-77
2024/04/08 11:51:35;;;;;;;9.23;2.70;;;;;;;;;;5470310;25;20017;-76
2024/04/08 11:54:20;;;;;;;12.02;2.75;;;;;;;;;;5469754;26;19994;-76
2024/04/08 11:57:06;;;;;;;8.55;2.90;;;;;;;;;;5496898;26;20010;-77
2024/04/08 11:59:51;;;;;;;8.68;2.78;;;;;;;;;;5495920;25;20008;-76
2024/04/08 12:02:36;;;;;;;15.85;4.00;;;;;;;;;;5506525;25;20069;-77
2024/04/08 12:05:22;;;;;;;13.50;2.38;;;;;;;;;;5505539;25;20444;-76
2024/04/08 12:08:07;;;;;;;16.60;3.75;;;;;;;;;;5506801;25;19997;-77
2024/04/08 12:10:53;;;;;;;11.30;2.60;;;;;;;;;;5506202;25;20012;-78
2024/04/08 12:13:38;;;;;;;11.48;3.42;;;;;;;;;;5484436;26;20009;-77
2024/04/08 12:16:23;;;;;;;8.57;2.75;;;;;;;;;;5467924;26;20001;-78
2024/04/08 12:19:09;;;;;;;12.23;3.05;;;;;;;;;;5469410;26;20464;-78
2024/04/08 12:21:54;;;;;;;17.85;3.58;;;;;;;;;;5469247;26;19994;-78
2024/04/08 12:24:39;;;;;;;15.80;4.70;;;;;;;;;;5469496;26;20020;-77
2024/04/08 12:27:27;;;;;;;16.88;3.03;;;;;;;;;;5469610;26;20009;-78
2024/04/08 12:30:13;;;;;;;15.85;3.67;;;;;;;;;;5468144;26;19994;-78
2024/04/08 12:32:58;;;;;;;23.63;3.97;;;;;;;;;;5453448;26;19995;-77
2024/04/08 12:35:43;;;;;;;18.58;3.42;;;;;;;;;;5427980;26;20008;-77
2024/04/08 12:38:29;;;;;;;15.20;2.78;;;;;;;;;;5453721;26;20310;-77
2024/04/08 12:41:14;;;;;;;11.45;2.78;;;;;;;;;;5453917;26;19994;-77
2024/04/08 12:43:59;;;;;;;12.13;3.63;;;;;;;;;;5453852;26;20077;-78
2024/04/08 12:46:44;;;;;;;12.07;3.28;;;;;;;;;;5428005;26;19994;-78
2024/04/08 12:49:30;;;;;;;17.92;4.10;;;;;;;;;;5453760;26;20078;-78
2024/04/08 12:52:17;;;;;;;18.17;4.10;;;;;;;;;;5453776;26;19994;-77
2024/04/08 12:55:03;;;;;;;15.30;3.15;;;;;;;;;;5443085;26;20027;-78
2024/04/08 12:57:48;;;;;;;21.17;4.32;;;;;;;;;;5442672;26;20022;-77
2024/04/08 13:00:33;;;;;;;20.90;4.32;;;;;;;;;;5417874;26;20341;-77
2024/04/08 13:03:19;;;;;;;8.85;3.33;;;;;;;;;;5417681;26;20009;-77
2024/04/08 13:06:04;;;;;;;12.32;4.05;;;;;;;;;;5441819;26;19995;-77
2024/04/08 13:08:49;;;;;;;19.05;3.75;;;;;;;;;;5417608;26;20067;-77
2024/04/08 13:11:35;;;;;;;16.52;3.90;;;;;;;;;;5445889;26;19994;-77
2024/04/08 13:14:20;;;;;;;24.02;4.28;;;;;;;;;;5477670;26;20586;-77
2024/04/08 13:17:05;;;;;;;19.08;4.60;;;;;;;;;;5453699;26;19994;-77
2024/04/08 13:19:50;;;;;;;21.67;5.22;;;;;;;;;;5452795;26;20000;-77
2024/04/08 13:22:36;;;;;;;19.20;4.88;;;;;;;;;;5453316;26;20006;-77
2024/04/08 13:25:21;;;;;;;29.15;5.65;;;;;;;;;;5448762;26;20018;-78
2024/04/08 13:28:06;;;;;;;28.80;6.43;;;;;;;;;;5453289;26;20082;-79
2024/04/08 13:30:52;;;;;;;41.33;7.72;;;;;;;;;;5453542;26;20017;-78
2024/04/08 13:33:38;;;;;;;28.92;6.75;;;;;;;;;;5453587;26;20013;-77
2024/04/08 13:36:23;;;;;;;37.15;8.02;;;;;;;;;;5453094;26;20010;-78
2024/04/08 13:39:08;;;;;;;33.45;7.50;;;;;;;;;;5453669;26;20749;-78
2024/04/08 13:41:53;;;;;;;32.00;6.32;;;;;;;;;;5452838;26;19998;-78
2024/04/08 13:44:39;;;;;;;28.77;7.07;;;;;;;;;;5452340;26;20002;-79
2024/04/08 13:47:27;;;;;;;29.75;6.43;;;;;;;;;;5452409;26;19998;-78
2024/04/08 13:50:13;;;;;;;31.83;7.20;;;;;;;;;;5452977;26;20034;-77
2024/04/08 13:52:58;;;;;;;33.92;8.07;;;;;;;;;;5453136;26;19998;-78
2024/04/08 13:55:53;;;;;;;32.05;6.18;;;;;;;;;;5452025;26;20004;-78
2024/04/08 13:58:38;;;;;;;29.15;6.72;;;;;;;;;;5452935;26;20002;-77
2024/04/08 14:01:23;;;;;;;36.28;7.15;;;;;;;;;;5453124;26;20010;-77
2024/04/08 14:04:10;;;;;;;27.27;5.68;;;;;;;;;;5450830;26;20014;-77
2024/04/08 14:06:55;;;;;;;29.83;6.30;;;;;;;;;;5435565;26;20014;-79
2024/04/08 14:09:40;;;;;;;37.22;6.72;;;;;;;;;;5416507;26;19999;-77
2024/04/08 14:12:26;;;;;;;24.70;6.78;;;;;;;;;;5436127;26;20002;-77
2024/04/08 14:15:11;;;;;;;29.33;6.53;;;;;;;;;;5450130;26;20647;-78
2024/04/08 14:17:56;;;;;;;31.60;6.43;;;;;;;;;;5445168;26;20005;-78
2024/04/08 14:20:42;;;;;;;42.20;6.32;;;;;;;;;;5445838;26;20117;-77
2024/04/08 14:23:27;;;;;;;40.33;9.20;;;;;;;;;;5418784;26;19995;-77
2024/04/08 14:26:13;;;;;;;40.22;9.50;;;;;;;;;;5428328;26;19994;-77
2024/04/08 14:28:58;;;;;;;54.50;9.05;;;;;;;;;;5432551;26;19999;-77
2024/04/08 14:31:46;;;;;;;44.25;8.50;;;;;;;;;;5443953;26;20002;-80
2024/04/08 14:34:32;;;;;;;43.57;9.50;;;;;;;;;;5451595;26;20317;-79
2024/04/08 14:37:17;;;;;;;34.72;9.02;;;;;;;;;;5420195;26;20028;-79
2024/04/08 14:40:03;;;;;;;41.67;9.93;;;;;;;;;;5445994;26;20003;-80
2024/04/08 14:42:49;;;;;;;48.80;10.55;;;;;;;;;;5436844;26;20337;-80
2024/04/08 14:45:34;;;;;;;42.03;9.13;;;;;;;;;;5438233;26;20275;-80
2024/04/08 14:48:19;;;;;;;46.05;9.85;;;;;;;;;;5436200;26;20022;-80
2024/04/08 14:51:05;;;;;;;34.72;8.98;;;;;;;;;;5427813;26;20483;-80
2024/04/08 14:53:50;;;;;;;36.92;7.40;;;;;;;;;;5435333;26;19998;-79
2024/04/08 14:56:35;;;;;;;40.33;8.80;;;;;;;;;;5420802;26;20008;-80
2024/04/08 14:59:22;;;;;;;40.53;8.07;;;;;;;;;;5436825;26;20333;-80
2024/04/08 15:02:07;;;;;;;43.08;8.57;;;;;;;;;;5436280;26;19998;-80
2024/04/08 15:04:53;;;;;;;37.63;8.93;;;;;;;;;;5440763;26;20021;-79
2024/04/08 15:07:38;;;;;;;33.58;9.27;;;;;;;;;;5444135;26;20405;-80
2024/04/08 15:10:24;;;;;;;37.42;7.72;;;;;;;;;;5421580;26;19999;-78
2024/04/08 15:13:09;;;;;;;44.80;9.75;;;;;;;;;;5420603;26;20007;-78
2024/04/08 15:15:54;;;;;;;42.75;9.85;;;;;;;;;;5441190;26;20009;-78
2024/04/08 15:18:42;;;;;;;43.95;8.98;;;;;;;;;;5434653;26;20015;-77
2024/04/08 15:21:28;;;;;;;42.05;10.18;;;;;;;;;;5428964;26;20002;-78
2024/04/08 15:24:13;;;;;;;34.33;8.38;;;;;;;;;;5425051;26;20003;-77
2024/04/08 15:26:58;;;;;;;35.65;10.18;;;;;;;;;;5430159;26;19995;-78
2024/04/08 15:29:47;;;;;;;42.22;10.13;;;;;;;;;;5440442;26;19998;-78
2024/04/08 15:32:32;;;;;;;31.92;9.13;;;;;;;;;;5439099;26;20100;-77
2024/04/08 15:35:18;;;;;;;42.70;7.85;;;;;;;;;;5427821;26;19998;-77
2024/04/08 15:38:03;;;;;;;34.75;8.25;;;;;;;;;;5442812;26;20011;-77
2024/04/08 15:40:55;;;;;;;35.13;9.02;;;;;;;;;;5417897;26;19999;-77
2024/04/08 15:50:26;;;;;;;29.38;7.95;;;;;;;;;;5415179;26;19999;-77
2024/04/08 15:53:11;;;;;;;37.40;8.32;;;;;;;;;;5436273;26;20103;-78
2024/04/08 15:55:56;;;;;;;35.30;9.27;;;;;;;;;;5451558;26;20168;-79
2024/04/08 15:58:42;;;;;;;14.32;3.75;;;;;;;;;;5449299;26;20009;-83
2024/04/08 16:01:27;;;;;;;32.20;8.00;;;;;;;;;;5425451;26;20073;-79
2024/04/08 16:04:13;;;;;;;35.58;8.27;;;;;;;;;;5415733;26;20021;-78
2024/04/08 16:06:58;;;;;;;41.85;9.00;;;;;;;;;;5417231;26;19999;-79
2024/04/08 16:09:43;;;;;;;35.40;8.43;;;;;;;;;;5459863;26;20314;-79
2024/04/08 16:12:28;;;;;;;35.13;7.85;;;;;;;;;;5409280;26;20003;-78
2024/04/08 16:15:14;;;;;;;39.40;8.77;;;;;;;;;;5477789;26;20039;-79
2024/04/08 16:17:59;;;;;;;29.33;8.73;;;;;;;;;;5446701;26;20002;-79
2024/04/08 16:20:53;;;;;;;34.78;7.40;;;;;;;;;;5454487;26;20536;-78
2024/04/08 16:23:39;;;;;;;32.28;6.50;;;;;;;;;;5454337;26;20055;-78
2024/04/08 16:26:24;;;;;;;29.65;8.63;;;;;;;;;;5445548;26;20078;-78
2024/04/08 16:29:10;;;;;;;34.72;8.45;;;;;;;;;;5452206;26;19994;-78